Last 48 Hours

Bell Hill-West

Hourly Data | America/Los_Angeles
as of 6/14/24 6:15 AM PDT
Date & Time Temp (°F) Heat Index (°F) RH (%) Dew Pt (°F) Wet Bulb (°F) Wind Dir (°) Wind Spd (mph) Wind Gust (mph) Wind Gst Dir (°) Solar Rad (W/m2) Latest Rain (In) Daily Rain (In) Daily Min Temp (°F) Daily Max Temp (°F) Daily ETo (in)
6/14/24 - 0600 50.1 - 70 40.7 45.8 S | 179 2.8 4.4 S | 180 3 0.00 0.00 49.2 59.4 0.000
6/14/24 - 0500 51.0 - 69 41.3 46.5 S | 175 2.2 4.1 S | 174 0 0.00 0.00 50.1 59.4 0.000
6/14/24 - 0400 52.4 - 69 42.6 47.8 S | 183 2.2 4.1 SW | 236 0 0.00 0.00 51.2 59.4 0.000
6/14/24 - 0300 55.8 - 64 44.0 50.0 S | 188 0.7 3.4 SSW | 200 0 0.00 0.00 53.8 59.4 0.000
6/14/24 - 0200 57.9 - 58 43.4 50.6 S | 174 0.9 4.1 S | 190 0 0.00 0.00 56.7 59.4 0.000
6/14/24 - 0100 64.8 - 43 41.2 52.1 SW | 214 2.8 10.1 WSW | 252 0 0.00 0.00 50.8 88.8 0.284
6/14/24 - 0000 65.5 - 46 43.8 53.5 S | 182 1.3 4.4 SSE | 162 0 0.00 0.00 50.8 88.8 0.283
6/13/24 - 2300 69.6 - 41 44.8 55.4 SW | 230 3.9 9.8 SW | 227 0 0.00 0.00 50.8 88.8 0.283
6/13/24 - 2200 71.0 - 44 47.8 57.3 SSW | 209 3.6 10.8 SSW | 202 0 0.00 0.00 50.8 88.8 0.282
6/13/24 - 2100 74.5 - 40 48.8 58.8 SW | 224 4.4 9.8 SSW | 199 19 0.00 0.00 50.8 88.8 0.281
6/13/24 - 2000 80.0 - 33 48.0 59.6 SW | 235 4.0 11.8 WSW | 254 164 0.00 0.00 50.8 88.8 0.280
6/13/24 - 1900 83.5 - 28 47.4 60.1 SW | 236 5.6 14.2 WSW | 238 361 0.00 0.00 50.8 88.8 0.274
6/13/24 - 1800 85.7 - 28 49.1 61.3 SW | 236 6.0 13.2 W | 264 563 0.00 0.00 50.8 88.8 0.261
6/13/24 - 1700 86.9 - 32 53.7 63.8 WSW | 241 7.5 14.8 SSW | 207 746 0.00 0.00 50.8 88.8 0.242
6/13/24 - 1600 87.5 - 32 54.1 64.1 WSW | 240 8.4 15.8 SW | 236 893 0.00 0.00 50.8 88.8 0.217
6/13/24 - 1500 87.8 - 31 53.8 64.0 WSW | 243 8.1 15.5 W | 276 987 0.00 0.00 50.8 88.8 0.186
6/13/24 - 1400 87.6 - 31 53.4 63.8 WSW | 240 7.6 14.5 SW | 226 1,025 0.00 0.00 50.8 88.8 0.154
6/13/24 - 1300 87.4 - 32 53.6 63.8 WSW | 248 5.3 12.1 SW | 223 1,020 0.00 0.00 50.8 88.5 0.120
6/13/24 - 1200 83.8 - 36 54.3 63.7 NNE | 15 2.7 7.8 N | 11 961 0.00 0.00 50.8 85.9 0.088
6/13/24 - 1100 80.0 - 41 54.2 63.0 N | 9 2.6 6.4 NE | 49 853 0.00 0.00 50.8 83.1 0.060
6/13/24 - 1000 75.1 - 49 54.6 62.2 N | 11 1.8 5.4 NNE | 27 689 0.00 0.00 50.8 77.9 0.036
6/13/24 - 0900 70.8 - 55 54.0 60.8 NNE | 22 1.2 4.4 NNE | 28 496 0.00 0.00 50.8 72.5 0.018
6/13/24 - 0800 63.3 - 66 51.8 57.2 S | 184 1.8 3.8 S | 183 290 0.00 0.00 50.8 69.0 0.006
6/13/24 - 0700 52.8 - 87 49.0 51.4 S | 183 2.0 3.8 SSW | 192 43 0.00 0.00 50.8 57.7 0.000
6/13/24 - 0600 51.4 - 87 47.7 50.1 S | 185 3.2 4.1 S | 181 3 0.00 0.00 50.8 57.7 0.000
6/13/24 - 0500 52.6 - 84 47.9 50.8 S | 179 2.8 4.8 S | 177 0 0.00 0.00 52.1 57.7 0.000
6/13/24 - 0400 53.3 - 83 48.2 51.3 S | 181 2.7 3.8 S | 177 0 0.00 0.00 52.7 57.7 0.000
6/13/24 - 0300 54.4 - 81 48.6 52.0 S | 183 2.0 4.8 S | 169 0 0.00 0.00 53.4 57.7 0.000
6/13/24 - 0200 56.2 - 76 48.9 52.8 SSW | 192 1.9 3.4 SSW | 196 0 0.00 0.00 55.3 57.7 0.000
6/13/24 - 0100 58.5 - 71 49.1 53.9 SSW | 193 1.7 3.8 WSW | 239 0 0.00 0.00 53.3 94.3 0.280
6/13/24 - 0000 62.0 - 64 49.8 55.6 S | 188 2.1 3.8 S | 173 0 0.00 0.00 53.3 94.3 0.280
6/12/24 - 2300 68.0 - 53 50.0 57.6 S | 190 2.0 5.1 SSE | 162 0 0.00 0.00 53.3 94.3 0.280
6/12/24 - 2200 73.5 - 45 51.0 59.7 S | 170 1.7 6.1 SSW | 206 0 0.00 0.00 53.3 94.3 0.280
6/12/24 - 2100 78.4 - 40 51.8 61.2 SSW | 196 1.9 8.1 SW | 214 18 0.00 0.00 53.3 94.3 0.280
6/12/24 - 2000 84.6 - 34 53.2 63.2 SSW | 194 2.5 8.1 S | 176 164 0.00 0.00 53.3 94.3 0.280
6/12/24 - 1900 88.1 - 32 54.9 64.6 SW | 228 4.2 12.8 SSW | 198 362 0.00 0.00 53.3 94.3 0.276
6/12/24 - 1800 90.6 89.7 34 58.4 66.9 SW | 231 6.6 13.2 WSW | 254 558 0.00 0.00 53.3 94.3 0.263
6/12/24 - 1700 92.4 92.5 35 60.8 68.6 WSW | 239 7.1 14.5 SSW | 202 730 0.00 0.00 53.3 94.3 0.243
6/12/24 - 1600 93.5 93.2 33 59.7 68.0 WSW | 246 6.6 13.2 WSW | 240 876 0.00 0.00 53.3 94.3 0.217
6/12/24 - 1500 93.4 93.0 33 59.6 67.9 WSW | 242 6.9 15.8 W | 260 976 0.00 0.00 53.3 94.3 0.187
6/12/24 - 1400 92.7 92.3 33 59.7 68.0 W | 266 5.9 12.5 W | 279 1,024 0.00 0.00 53.3 93.6 0.153
6/12/24 - 1300 89.5 88.8 36 59.1 67.3 NNE | 15 3.5 7.8 NNE | 16 1,018 0.00 0.00 53.3 91.8 0.119
6/12/24 - 1200 85.7 85.9 44 61.0 68.1 NNE | 13 3.2 8.4 NNW | 340 952 0.00 0.00 53.3 87.6 0.088
6/12/24 - 1100 80.9 81.4 48 59.1 66.2 N | 356 2.5 7.1 NNE | 12 839 0.00 0.00 53.3 83.1 0.059
6/12/24 - 1000 76.6 - 52 57.8 64.6 N | 353 1.5 6.1 NNE | 30 677 0.00 0.00 53.3 79.5 0.036
6/12/24 - 0900 72.7 - 57 56.8 63.1 N | 8 0.9 4.8 NNE | 24 488 0.00 0.00 53.3 74.4 0.018
6/12/24 - 0800 64.9 - 69 54.6 59.5 S | 180 1.3 4.4 S | 176 285 0.00 0.00 53.3 70.6 0.006
6/12/24 - 0700 55.4 - 88 51.9 54.4 S | 186 2.2 3.4 S | 182 43 0.00 0.00 53.3 60.1 0.000
6/12/24 - 0600 53.8 - 89 50.8 53.0 S | 185 2.5 3.8 S | 183 3 0.00 0.00 53.4 60.1 0.000
Max 93.5 93.2 89 61.0 68.6 - 8.4 15.8 - 1,025 0.00 0.00 56.7 94.3 0.284
Avg 72.4 89.6 52 51.4 58.9 - 3.4 8.0 - 370 0.00 - - - -
Min 50.1 81.4 28 40.7 45.8 - 0.7 3.4 - 0 0.00 0.00 49.2 57.7 0.000
Total - - - - - - - - - - 0.00 - - - -